^^
Grace C. Lehan Memorial Weather Station Historical Data
Daily Summary for October 04, 2022 Units:  English    Metric   Both
Daily Weekly Monthly Yearly
  High: Low: Average:
Temperature: 56.1 °F 49 °F 52.6 °F
Dew Point: 52.8 °F 41.6 °F 47.7 °F
Humidity: 94.2% 72% 84%
Wind Speed: 4.9mph 0mph 1.1mph
Wind Gust: 18mph - -
Wind- - ESE
Pressure: 30.16 in 29.95 in -
Precipitation: 0.13 in    
 
 
Tabular Data for October 04, 2022
Time Temperature Dew Point Pressure Wind Wind Speed Wind Gust Humidity Rainfall Rate (Hourly) solar
00:04 50.3 °F 41.6 °F 30.16 in NNW 0.1 mph 2 mph 72% 0.00 in 0 W/m2
00:09 50.3 °F 41.9 °F 30.16 in North 0.7 mph 7 mph 72.9% 0.00 in 0 W/m2
00:14 50.3 °F 41.6 °F 30.15 in NNE 0.7 mph 7 mph 72% 0.00 in 0 W/m2
00:19 50.3 °F 41.7 °F 30.15 in ENE 1 mph 8 mph 72% 0.00 in 0 W/m2
00:24 50.4 °F 41.8 °F 30.15 in ENE 0.1 mph 8 mph 72.1% 0.00 in 0 W/m2
00:29 50.4 °F 42.1 °F 30.15 in NE 0.4 mph 8 mph 73% 0.00 in 0 W/m2
00:34 50.3 °F 42.1 °F 30.15 in South 0.2 mph 8 mph 73.2% 0.00 in 0 W/m2
00:39 50.3 °F 42.3 °F 30.14 in NNW 0.4 mph 5 mph 73.9% 0.00 in 0 W/m2
00:44 50.2 °F 42.3 °F 30.14 in NW 0.5 mph 5 mph 74% 0.00 in 0 W/m2
00:49 50.2 °F 42.2 °F 30.14 in NNW 0.3 mph 5 mph 74% 0.00 in 0 W/m2
00:54 50.1 °F 42.2 °F 30.14 in East 0.3 mph 5 mph 74% 0.00 in 0 W/m2
00:59 50.1 °F 42.2 °F 30.14 in ENE 1.1 mph 6 mph 74% 0.00 in 0 W/m2
01:04 50 °F 42.1 °F 30.14 in NNE 0.5 mph 6 mph 74% 0.00 in 0 W/m2
01:09 50 °F 42.1 °F 30.13 in NE 0.3 mph 5 mph 74% 0.00 in 0 W/m2
01:14 50 °F 42.1 °F 30.14 in ENE 0.9 mph 9 mph 74% 0.00 in 0 W/m2
01:19 50 °F 42.1 °F 30.14 in ENE 0.6 mph 9 mph 74% 0.00 in 0 W/m2
01:24 50 °F 42.1 °F 30.13 in ESE 0.2 mph 9 mph 74% 0.00 in 0 W/m2
01:29 50 °F 42.1 °F 30.14 in NNE 0.4 mph 9 mph 74% 0.00 in 0 W/m2
01:34 50 °F 42.1 °F 30.13 in ENE 0.5 mph 9 mph 74% 0.00 in 0 W/m2
01:39 50 °F 42.2 °F 30.13 in ENE 0.8 mph 8 mph 74.4% 0.00 in 0 W/m2
01:44 50 °F 41.9 °F 30.13 in East 0.6 mph 8 mph 73.6% 0.00 in 0 W/m2
01:49 50.1 °F 41.8 °F 30.13 in ENE 0.7 mph 8 mph 73% 0.00 in 0 W/m2
01:54 50.1 °F 41.9 °F 30.12 in NE 1.5 mph 13 mph 73.4% 0.00 in 0 W/m2
01:59 50.1 °F 42 °F 30.12 in East 1 mph 13 mph 73.7% 0.00 in 0 W/m2
02:04 50 °F 42 °F 30.12 in NNE 0.5 mph 13 mph 73.8% 0.00 in 0 W/m2
02:09 50 °F 41.9 °F 30.12 in NE 1.1 mph 8 mph 73.7% 0.00 in 0 W/m2
02:14 50 °F 42.1 °F 30.12 in ENE 0.4 mph 8 mph 74% 0.00 in 0 W/m2
02:19 50 °F 42.1 °F 30.12 in NNE 1.1 mph 14 mph 74% 0.00 in 0 W/m2
02:24 49.9 °F 42 °F 30.12 in NE 1.3 mph 14 mph 74% 0.00 in 0 W/m2
02:29 49.9 °F 42 °F 30.12 in ENE 1.1 mph 14 mph 74.2% 0.00 in 0 W/m2
02:34 49.9 °F 42.3 °F 30.11 in NNE 0.9 mph 14 mph 74.9% 0.00 in 0 W/m2
02:39 49.9 °F 42.3 °F 30.11 in NE 0.6 mph 7 mph 75% 0.00 in 0 W/m2
02:44 49.8 °F 42.2 °F 30.10 in NW 1.4 mph 14 mph 75% 0.00 in 0 W/m2
02:49 49.8 °F 42.2 °F 30.11 in North 1.5 mph 14 mph 75% 0.00 in 0 W/m2
02:54 49.8 °F 42.2 °F 30.10 in North 0.6 mph 14 mph 75% 0.00 in 0 W/m2
02:59 49.8 °F 42.3 °F 30.10 in North 0.4 mph 14 mph 75% 0.00 in 0 W/m2
03:04 49.8 °F 42.2 °F 30.10 in NE 0.9 mph 14 mph 75% 0.00 in 0 W/m2
03:09 49.8 °F 42.2 °F 30.10 in East 0.7 mph 10 mph 75% 0.00 in 0 W/m2
03:14 49.8 °F 42.3 °F 30.09 in NE 0.6 mph 10 mph 75.3% 0.00 in 0 W/m2
03:19 49.8 °F 42.6 °F 30.09 in North 0.5 mph 10 mph 76% 0.00 in 0 W/m2
03:24 49.8 °F 42.6 °F 30.09 in NE 1 mph 10 mph 76% 0.00 in 0 W/m2
03:29 49.8 °F 42.6 °F 30.09 in ENE 0.7 mph 10 mph 76.2% 0.00 in 0 W/m2
03:34 49.8 °F 42.7 °F 30.09 in NE 1.1 mph 10 mph 76.6% 0.00 in 0 W/m2
03:39 49.8 °F 42.9 °F 30.09 in ENE 0.3 mph 9 mph 77% 0.00 in 0 W/m2
03:44 49.8 °F 42.9 °F 30.09 in ENE 0.6 mph 9 mph 77% 0.00 in 0 W/m2
03:49 49.8 °F 42.9 °F 30.08 in North 1 mph 9 mph 77% 0.00 in 0 W/m2
03:54 49.9 °F 43 °F 30.08 in North 1.1 mph 11 mph 77% 0.00 in 0 W/m2
03:59 49.9 °F 43 °F 30.08 in ENE 0.6 mph 11 mph 77% 0.00 in 0 W/m2
04:04 49.9 °F 43.3 °F 30.08 in NW 0.3 mph 1 mph 78% 0.00 in 0 W/m2
04:09 49.9 °F 43.3 °F 30.08 in NE 0.9 mph 11 mph 78% 0.00 in 0 W/m2
04:14 49.8 °F 43.3 °F 30.08 in ENE 0.8 mph 11 mph 78% 0.00 in 0 W/m2
04:19 49.9 °F 43.3 °F 30.08 in NE 0.3 mph 11 mph 78% 0.00 in 0 W/m2
04:24 49.9 °F 43.3 °F 30.08 in NNW 0.6 mph 11 mph 78% 0.00 in 0 W/m2
04:29 49.9 °F 43.3 °F 30.08 in NNE 1.1 mph 12 mph 78% 0.00 in 0 W/m2
04:34 49.9 °F 43.3 °F 30.08 in NE 1.5 mph 12 mph 78% 0.00 in 0 W/m2
04:39 49.9 °F 43.6 °F 30.08 in ENE 1.1 mph 10 mph 78.9% 0.01 in 0 W/m2
04:44 49.7 °F 43.5 °F 30.08 in ENE 1.7 mph 10 mph 79.2% 0.01 in 0 W/m2
04:49 49.5 °F 43.7 °F 30.08 in NE 2.7 mph 11 mph 80.3% 0.01 in 0 W/m2
04:54 49.4 °F 43.8 °F 30.08 in ENE 0.6 mph 11 mph 80.8% 0.01 in 0 W/m2
04:59 49.3 °F 43.8 °F 30.08 in NE 1.5 mph 13 mph 81.1% 0.01 in 0 W/m2
05:04 49.2 °F 43.9 °F 30.08 in ENE 0.4 mph 13 mph 81.8% 0.01 in 0 W/m2
05:09 49.2 °F 44 °F 30.08 in NNE 1 mph 10 mph 82% 0.01 in 0 W/m2
05:14 49.2 °F 44 °F 30.09 in NNW 0.8 mph 10 mph 82% 0.01 in 0 W/m2
05:19 49.2 °F 44 °F 30.09 in NE 0.2 mph 10 mph 82% 0.01 in 0 W/m2
05:24 49.2 °F 44 °F 30.09 in NNE 0.2 mph 10 mph 82% 0.01 in 0 W/m2
05:29 49.2 °F 44 °F 30.08 in North 0.6 mph 10 mph 82% 0.01 in 0 W/m2
05:34 49.2 °F 44 °F 30.09 in NE 1.1 mph 10 mph 82% 0.01 in 0 W/m2
05:39 49.3 °F 44 °F 30.09 in NNE 0.4 mph 9 mph 82% 0.01 in 0 W/m2
05:44 49.3 °F 44.1 °F 30.09 in NNW 1.1 mph 9 mph 82% 0.01 in 0 W/m2
05:49 49.3 °F 44.1 °F 30.09 in NE 0.2 mph 9 mph 82% 0.01 in 0 W/m2
05:54 49.4 °F 44.1 °F 30.09 in NE 0.4 mph 9 mph 82% 0.01 in 0 W/m2
05:59 49.4 °F 44.1 °F 30.08 in NNE 0.7 mph 9 mph 82% 0.01 in 0 W/m2
06:04 49.3 °F 44.3 °F 30.08 in NW 0.5 mph 9 mph 82.7% 0.01 in 0 W/m2
06:09 49.3 °F 44.3 °F 30.08 in NNW 0.6 mph 10 mph 83% 0.00 in 0 W/m2
06:14 49.2 °F 44.2 °F 30.07 in North 0.7 mph 10 mph 83% 0.00 in 0 W/m2
06:19 49.1 °F 44.2 °F 30.07 in NE 0.6 mph 10 mph 83% 0.00 in 0 W/m2
06:24 49 °F 44.1 °F 30.07 in North 1.5 mph 10 mph 83% 0.00 in 0 W/m2
06:29 49 °F 44.1 °F 30.07 in NE 1.2 mph 10 mph 83% 0.00 in 0 W/m2
06:34 49.1 °F 44.2 °F 30.07 in NNE 0.4 mph 10 mph 83% 0.00 in 0 W/m2
06:39 49.2 °F 44.2 °F 30.07 in NNW 0.8 mph 12 mph 82.9% 0.00 in 0 W/m2
06:44 49.2 °F 44 °F 30.07 in NNE 0.9 mph 12 mph 82% 0.00 in 0 W/m2
06:49 49.3 °F 44.1 °F 30.07 in NE 0.6 mph 12 mph 82% 0.00 in 0 W/m2
06:54 49.4 °F 44.1 °F 30.07 in NNE 0.7 mph 12 mph 82% 0.00 in 0 W/m2
06:59 49.4 °F 44.2 °F 30.07 in NNE 0.4 mph 12 mph 82% 0.00 in 0 W/m2
07:04 49.5 °F 44.2 °F 30.07 in NNW 0.6 mph 12 mph 82% 0.00 in 0 W/m2
07:09 49.6 °F 44.3 °F 30.07 in NW 0.1 mph 4 mph 82% 0.00 in 5 W/m2
07:14 49.6 °F 44.3 °F 30.08 in NNW 0.4 mph 11 mph 82% 0.00 in 7 W/m2
07:19 49.7 °F 44.4 °F 30.07 in NNW 0.3 mph 11 mph 82% 0.00 in 12 W/m2
07:24 49.7 °F 44.3 °F 30.07 in NE 2.4 mph 11 mph 81.6% 0.00 in 18 W/m2
07:29 49.9 °F 44.3 °F 30.07 in NE 1.3 mph 11 mph 81% 0.00 in 21 W/m2
07:34 49.9 °F 44.3 °F 30.07 in East 1 mph 11 mph 81% 0.00 in 26 W/m2
07:39 50 °F 44.4 °F 30.07 in ESE 1.3 mph 7 mph 81% 0.00 in 32 W/m2
07:44 50.1 °F 44.5 °F 30.08 in NE 2.8 mph 14 mph 81% 0.00 in 33 W/m2
07:49 50.1 °F 44.4 °F 30.08 in NE 1.1 mph 14 mph 80.7% 0.00 in 37 W/m2
07:54 50.2 °F 44.4 °F 30.08 in NE 1.5 mph 14 mph 80.3% 0.00 in 37 W/m2
07:59 50.3 °F 44.4 °F 30.07 in NNE 0.9 mph 14 mph 80% 0.00 in 33 W/m2
08:00 50.3 °F 44.4 °F 30.07 in Calm   14 mph 80% 0.00 in 28 W/m2
08:09 50.3 °F 44.5 °F 30.08 in ENE 1.7 mph 14 mph 80.4% 0.00 in 26 W/m2
08:14 50.4 °F 44.5 °F 30.08 in ESE 1 mph 15 mph 80% 0.00 in 25 W/m2
08:19 50.4 °F 44.5 °F 30.08 in NE 1.4 mph 15 mph 80% 0.00 in 30 W/m2
08:24 50.5 °F 44.5 °F 30.08 in NE 1.5 mph 15 mph 80% 0.00 in 39 W/m2
08:29 50.5 °F 44.6 °F 30.08 in NE 1.1 mph 15 mph 80% 0.00 in 44 W/m2
08:34 50.5 °F 44.6 °F 30.08 in ENE 1.9 mph 15 mph 80% 0.00 in 44 W/m2
08:39 50.5 °F 44.6 °F 30.08 in NE 0.6 mph 9 mph 80% 0.00 in 44 W/m2
08:44 50.6 °F 44.7 °F 30.08 in NE 0.2 mph 9 mph 80% 0.00 in 46 W/m2
08:49 50.6 °F 44.7 °F 30.08 in ENE 1.8 mph 11 mph 80% 0.00 in 56 W/m2
08:54 50.6 °F 44.7 °F 30.08 in ENE 2.2 mph 13 mph 80% 0.00 in 56 W/m2
08:59 50.6 °F 44.7 °F 30.08 in ENE 0.8 mph 13 mph 80% 0.00 in 51 W/m2
09:04 50.6 °F 44.9 °F 30.08 in NE 1.3 mph 13 mph 80.8% 0.00 in 42 W/m2
09:09 50.6 °F 45 °F 30.08 in ENE 1.5 mph 10 mph 81% 0.00 in 44 W/m2
09:14 50.5 °F 44.9 °F 30.08 in NE 1.4 mph 10 mph 81.1% 0.00 in 49 W/m2
09:19 50.4 °F 45.3 °F 30.08 in NNE 1.6 mph 11 mph 82.4% 0.00 in 49 W/m2
09:24 50.3 °F 45.4 °F 30.07 in East 1.1 mph 11 mph 83.3% 0.01 in 54 W/m2
09:29 50.1 °F 45.6 °F 30.07 in NNW 0.4 mph 11 mph 84.3% 0.01 in 67 W/m2
09:34 50 °F 45.7 °F 30.07 in ENE 1.8 mph 11 mph 85.2% 0.01 in 76 W/m2
09:39 49.8 °F 45.8 °F 30.07 in NNE 1.1 mph 9 mph 86% 0.02 in 77 W/m2
09:44 49.7 °F 45.8 °F 30.07 in NE 0.8 mph 9 mph 86.3% 0.02 in 90 W/m2
09:49 49.7 °F 46 °F 30.07 in ENE 0.7 mph 9 mph 87% 0.02 in 98 W/m2
09:54 49.8 °F 46.4 °F 30.07 in NE 0.2 mph 9 mph 87.9% 0.02 in 100 W/m2
09:59 49.9 °F 46.5 °F 30.07 in NNE 0.7 mph 9 mph 88% 0.02 in 118 W/m2
10:04 50.1 °F 46.9 °F 30.07 in NE 1.2 mph 9 mph 88.8% 0.02 in 127 W/m2
10:09 50.2 °F 46.9 °F 30.07 in NNE 0.5 mph 8 mph 88.5% 0.02 in 125 W/m2
10:14 50.4 °F 47.5 °F 30.06 in NNE 0.9 mph 8 mph 89.9% 0.02 in 130 W/m2
10:19 50.5 °F 47.4 °F 30.06 in NE 0.9 mph 8 mph 89% 0.02 in 132 W/m2
10:24 50.7 °F 47.5 °F 30.06 in ENE 0.7 mph 8 mph 88.9% 0.02 in 116 W/m2
10:29 50.8 °F 47.5 °F 30.06 in ENE 1.4 mph 8 mph 88.2% 0.02 in 100 W/m2
10:34 51 °F 47.6 °F 30.06 in NE 1.5 mph 12 mph 88.2% 0.02 in 109 W/m2
10:39 51.1 °F 47.9 °F 30.06 in NE 0.4 mph 12 mph 88.8% 0.01 in 114 W/m2
10:44 51.2 °F 48.1 °F 30.05 in NE 0.8 mph 12 mph 89% 0.01 in 123 W/m2
10:49 51.4 °F 48.3 °F 30.05 in ENE 1.7 mph 12 mph 89% 0.01 in 123 W/m2
10:54 51.6 °F 48.5 °F 30.05 in NE 1.3 mph 12 mph 89% 0.02 in 120 W/m2
10:59 51.8 °F 48.7 °F 30.05 in NNE 1.5 mph 12 mph 89% 0.02 in 148 W/m2
11:04 52 °F 48.9 °F 30.04 in ENE 1.3 mph 12 mph 89% 0.02 in 156 W/m2
11:09 52.1 °F 49 °F 30.04 in ENE 2.2 mph 12 mph 89% 0.01 in 181 W/m2
11:14 52.1 °F 49 °F 30.05 in ENE 1.3 mph 12 mph 89% 0.02 in 178 W/m2
11:19 52.2 °F 49.1 °F 30.05 in NE 4.8 mph 15 mph 89% 0.02 in 176 W/m2
11:24 52.2 °F 49.1 °F 30.05 in NE 3.1 mph 15 mph 89% 0.02 in 174 W/m2
11:29 52.2 °F 48.9 °F 30.05 in ENE 2.7 mph 15 mph 88.4% 0.02 in 179 W/m2
11:34 52.3 °F 49.1 °F 30.05 in NE 2.4 mph 15 mph 88.7% 0.02 in 225 W/m2
11:39 52.5 °F 49.4 °F 30.05 in NE 2.2 mph 12 mph 89% 0.02 in 204 W/m2
11:44 52.7 °F 49.5 °F 30.05 in NE 2.3 mph 13 mph 88.8% 0.02 in 221 W/m2
11:49 52.8 °F 49.4 °F 30.04 in ENE 3.4 mph 13 mph 88% 0.02 in 292 W/m2
11:54 53 °F 49.4 °F 30.04 in ENE 2.5 mph 15 mph 87.6% 0.02 in 272 W/m2
11:59 53.2 °F 49.6 °F 30.05 in ENE 1.7 mph 15 mph 87.4% 0.02 in 209 W/m2
12:09 53.3 °F 49.2 °F 30.03 in NE 2.6 mph 14 mph 86% 0.02 in 216 W/m2
12:14 53.4 °F 49.3 °F 30.03 in NE 4.4 mph 16 mph 85.8% 0.02 in 236 W/m2
12:19 53.5 °F 49.2 °F 30.03 in ENE 3.3 mph 16 mph 85.2% 0.02 in 260 W/m2
12:24 53.7 °F 49.3 °F 30.03 in ENE 3.9 mph 16 mph 85% 0.02 in 271 W/m2
12:29 53.8 °F 49.2 °F 30.03 in ENE 1.7 mph 16 mph 84.3% 0.02 in 297 W/m2
12:34 54.1 °F 49.7 °F 30.03 in NE 1.3 mph 16 mph 85% 0.02 in 308 W/m2
12:39 54.4 °F 49.9 °F 30.03 in ENE 1.4 mph 10 mph 84.7% 0.00 in 250 W/m2
12:44 54.6 °F 49.9 °F 30.02 in NE 3.7 mph 15 mph 84% 0.00 in 214 W/m2
12:49 54.7 °F 49.8 °F 30.02 in NE 2 mph 15 mph 83.5% 0.00 in 167 W/m2
12:54 54.7 °F 49.8 °F 30.02 in ENE 3.1 mph 18 mph 83.3% 0.00 in 183 W/m2
12:59 54.8 °F 49.9 °F 30.02 in NE 1.2 mph 18 mph 83.5% 0.00 in 183 W/m2
13:04 54.8 °F 49.8 °F 30.02 in ENE 2.1 mph 18 mph 83.1% 0.00 in 176 W/m2
13:09 54.9 °F 49.9 °F 30.01 in NE 1.3 mph 14 mph 83% 0.00 in 176 W/m2
13:14 55.1 °F 50 °F 30.01 in North 1.9 mph 14 mph 83% 0.00 in 162 W/m2
13:19 55.2 °F 50.1 °F 30.01 in East 0.6 mph 14 mph 83% 0.00 in 160 W/m2
13:24 55.2 °F 50 °F 30.01 in NE 3.4 mph 14 mph 82.7% 0.00 in 185 W/m2
13:29 55.3 °F 50 °F 30.01 in ENE 2.4 mph 14 mph 82.5% 0.00 in 200 W/m2
13:34 55.4 °F 50 °F 30.00 in NE 3.6 mph 14 mph 82% 0.00 in 206 W/m2
13:39 55.5 °F 50.1 °F 30.00 in East 1.2 mph 12 mph 82.1% 0.00 in 200 W/m2
13:44 55.7 °F 50.4 °F 30.00 in ENE 1.2 mph 13 mph 82.4% 0.00 in 200 W/m2
13:49 55.9 °F 50.6 °F 30.00 in NE 2.2 mph 13 mph 82.4% 0.00 in 181 W/m2
13:54 56 °F 50.6 °F 30.00 in NE 4.9 mph 13 mph 82.2% 0.00 in 162 W/m2
13:59 55.9 °F 50.5 °F 30.00 in ENE 0.8 mph 13 mph 82% 0.00 in 146 W/m2
14:04 56 °F 50.8 °F 29.99 in NE 2.8 mph 13 mph 82.5% 0.00 in 156 W/m2
14:09 56 °F 50.5 °F 29.99 in NE 2.5 mph 13 mph 82% 0.00 in 151 W/m2
14:14 55.9 °F 50.8 °F 29.99 in ENE 4 mph 16 mph 82.8% 0.00 in 130 W/m2
14:19 55.8 °F 50.7 °F 29.99 in ENE 2.5 mph 16 mph 82.8% 0.00 in 118 W/m2
14:24 55.8 °F 50.7 °F 29.99 in NE 1.5 mph 16 mph 83% 0.00 in 118 W/m2
14:29 55.8 °F 51 °F 29.99 in ENE 2 mph 16 mph 83.7% 0.00 in 111 W/m2
14:34 55.7 °F 51.1 °F 29.98 in NE 1.8 mph 16 mph 84.2% 0.00 in 120 W/m2
14:39 55.6 °F 51.2 °F 29.98 in ENE 3.2 mph 18 mph 85% 0.00 in 148 W/m2
14:44 55.5 °F 51.2 °F 29.98 in NE 2.8 mph 18 mph 85.4% 0.00 in 158 W/m2
14:49 55.5 °F 51.4 °F 29.98 in NE 1.6 mph 18 mph 86% 0.00 in 137 W/m2
14:54 55.5 °F 51.4 °F 29.98 in NE 0.6 mph 18 mph 86% 0.00 in 134 W/m2
14:59 55.6 °F 51.6 °F 29.98 in ENE 0.7 mph 18 mph 86.4% 0.00 in 135 W/m2
15:04 55.6 °F 51.5 °F 29.98 in ENE 0.4 mph 18 mph 86% 0.00 in 135 W/m2
15:09 55.6 °F 51.5 °F 29.98 in NNE 0.7 mph 9 mph 86% 0.00 in 102 W/m2
15:14 55.5 °F 51.4 °F 29.98 in NNE 1.4 mph 12 mph 86% 0.00 in 62 W/m2
15:19 55.4 °F 51.3 °F 29.98 in NNE 1.2 mph 12 mph 86% 0.00 in 56 W/m2
15:24 55.3 °F 51.2 °F 29.98 in NE 0.9 mph 12 mph 86% 0.00 in 62 W/m2
15:29 55.3 °F 51.2 °F 29.98 in ENE 1.8 mph 12 mph 86% 0.00 in 63 W/m2
15:34 55.2 °F 51.1 °F 29.98 in ENE 3.3 mph 15 mph 86% 0.00 in 63 W/m2
15:39 55.2 °F 51.1 °F 29.98 in NNW 1.8 mph 15 mph 86% 0.00 in 77 W/m2
15:44 55.2 °F 51.1 °F 29.97 in NE 0.6 mph 15 mph 86% 0.00 in 79 W/m2
15:49 55.2 °F 51.2 °F 29.98 in ENE 0.8 mph 15 mph 86.3% 0.00 in 54 W/m2
15:54 55.2 °F 51.1 °F 29.98 in NE 1.2 mph 15 mph 86% 0.00 in 58 W/m2
15:59 55.1 °F 51 °F 29.98 in NE 0.2 mph 15 mph 86% 0.00 in 65 W/m2
16:00 55.1 °F 51 °F 29.97 in NNE 1.3 mph 15 mph 86% 0.00 in 60 W/m2
16:09 55.1 °F 51 °F 29.97 in East 0.3 mph 4 mph 86% 0.00 in 53 W/m2
16:14 55.1 °F 51 °F 29.97 in NE 1 mph 6 mph 86% 0.00 in 51 W/m2
16:19 55 °F 50.8 °F 29.97 in ENE 0.4 mph 6 mph 85.5% 0.00 in 51 W/m2
16:24 55 °F 50.6 °F 29.97 in ENE 1 mph 6 mph 85% 0.00 in 60 W/m2
16:29 55.1 °F 50.7 °F 29.97 in ENE 0.2 mph 6 mph 85% 0.00 in 60 W/m2
16:34 55.1 °F 50.7 °F 29.97 in NE 0.2 mph 6 mph 85% 0.00 in 47 W/m2
16:39 55.1 °F 50.7 °F 29.97 in East 0.6 mph 5 mph 85% 0.00 in 49 W/m2
16:44 55.1 °F 50.6 °F 29.97 in NE 1.1 mph 5 mph 84.6% 0.00 in 47 W/m2
16:49 55.2 °F 50.4 °F 29.97 in East 0.3 mph 5 mph 84% 0.00 in 44 W/m2
16:54 55.2 °F 50.5 °F 29.96 in NNE 0.7 mph 7 mph 84% 0.00 in 42 W/m2
16:59 55.2 °F 50.5 °F 29.96 in North 0.5 mph 7 mph 84% 0.00 in 49 W/m2
17:04 55.2 °F 50.5 °F 29.96 in North 0.6 mph 7 mph 84% 0.00 in 53 W/m2
17:09 55.2 °F 50.2 °F 29.96 in NNW 1 mph 9 mph 83.2% 0.00 in 44 W/m2
17:14 55.3 °F 50.2 °F 29.96 in NNW 1.3 mph 9 mph 83% 0.00 in 33 W/m2
17:19 55.3 °F 50.2 °F 29.96 in NE 0.7 mph 9 mph 83% 0.00 in 23 W/m2
17:24 55.3 °F 50 °F 29.96 in NE 0.1 mph 9 mph 82.5% 0.00 in 19 W/m2
17:29 55.3 °F 50.2 °F 29.96 in North 0.3 mph 9 mph 82.8% 0.00 in 21 W/m2
17:34 55.2 °F 49.9 °F 29.96 in NNW 0.2 mph 9 mph 82.1% 0.00 in 19 W/m2
17:39 55.3 °F 50.1 °F 29.96 in NE 0.4 mph 9 mph 82.7% 0.00 in 12 W/m2
17:44 55.3 °F 50.1 °F 29.96 in NNE 0.3 mph 9 mph 82.6% 0.00 in 11 W/m2
17:49 55.3 °F 50.1 °F 29.96 in NNE 0.2 mph 9 mph 82.6% 0.00 in 7 W/m2
17:54 55.3 °F 50.2 °F 29.96 in ENE 0.7 mph 9 mph 83% 0.00 in 9 W/m2
17:59 55.3 °F 50.3 °F 29.96 in NNE 0.6 mph 9 mph 83% 0.00 in 7 W/m2
18:04 55.4 °F 50.3 °F 29.96 in North 0.4 mph 9 mph 83% 0.00 in 5 W/m2
18:09 55.4 °F 50.4 °F 29.96 in NW 0.7 mph 10 mph 83% 0.00 in 0 W/m2
18:14 55.5 °F 50.4 °F 29.96 in NNE 0.8 mph 10 mph 83% 0.00 in 0 W/m2
18:19 55.6 °F 50.5 °F 29.96 in NNE 0.3 mph 10 mph 83% 0.00 in 0 W/m2
18:24 55.7 °F 50.6 °F 29.96 in ESE 0.3 mph 10 mph 83% 0.00 in 0 W/m2
18:29 55.8 °F 50.7 °F 29.96 in ESE 0.5 mph 10 mph 83% 0.00 in 0 W/m2
18:34 55.9 °F 50.8 °F 29.96 in NE 0.9 mph 10 mph 83% 0.00 in 0 W/m2
18:39 55.9 °F 50.9 °F 29.96 in ENE 0.4 mph 9 mph 83% 0.00 in 0 W/m2
18:44 56 °F 50.9 °F 29.96 in NE 0.5 mph 9 mph 83% 0.00 in 0 W/m2
18:49 56.1 °F 51.3 °F 29.96 in NNE 0.8 mph 9 mph 83.8% 0.00 in 0 W/m2
18:54 56.1 °F 51.3 °F 29.96 in NNE 0.6 mph 9 mph 84% 0.00 in 0 W/m2
18:59 56.1 °F 51.3 °F 29.96 in North 0.6 mph 9 mph 84% 0.00 in 0 W/m2
19:04 56 °F 51.4 °F 29.96 in WSW 0.8 mph 11 mph 84.4% 0.00 in 0 W/m2
19:09 56 °F 51.6 °F 29.97 in NE 0.7 mph 11 mph 85% 0.00 in 0 W/m2
19:14 56 °F 51.6 °F 29.97 in ENE 1.5 mph 11 mph 85% 0.00 in 0 W/m2
19:19 56 °F 51.6 °F 29.97 in ENE 1.6 mph 11 mph 85% 0.00 in 0 W/m2
19:24 56 °F 51.6 °F 29.97 in WSW 0.6 mph 11 mph 85% 0.00 in 0 W/m2
19:29 56 °F 51.6 °F 29.97 in ENE 1.1 mph 11 mph 85% 0.00 in 0 W/m2
19:34 56.1 °F 51.7 °F 29.97 in NE 1.4 mph 11 mph 85% 0.00 in 0 W/m2
19:39 56.1 °F 51.7 °F 29.97 in NNE 0.8 mph 11 mph 85% 0.00 in 0 W/m2
19:44 56.1 °F 51.7 °F 29.97 in ENE 0.9 mph 11 mph 85% 0.00 in 0 W/m2
19:49 56.1 °F 51.7 °F 29.97 in North 0.4 mph 11 mph 85.2% 0.00 in 0 W/m2
19:54 56.1 °F 52 °F 29.97 in NE 2 mph 11 mph 86% 0.00 in 0 W/m2
19:59 56.1 °F 51.9 °F 29.97 in East 0.6 mph 11 mph 86% 0.00 in 0 W/m2
20:00 56 °F 51.9 °F 29.97 in Calm   11 mph 86% 0.00 in 0 W/m2
20:09 55.9 °F 52.1 °F 29.97 in ENE 0.8 mph 5 mph 87.3% 0.00 in 0 W/m2
20:14 55.7 °F 52.2 °F 29.97 in ENE 1.1 mph 13 mph 88% 0.00 in 0 W/m2
20:19 55.6 °F 52.2 °F 29.97 in ENE 0.8 mph 13 mph 88% 0.00 in 0 W/m2
20:24 55.5 °F 52.2 °F 29.97 in NE 1.7 mph 13 mph 88.7% 0.00 in 0 W/m2
20:29 55.5 °F 52.4 °F 29.97 in NE 1.6 mph 13 mph 89% 0.00 in 0 W/m2
20:34 55.5 °F 52.3 °F 29.96 in ENE 0.8 mph 13 mph 89% 0.00 in 0 W/m2
20:39 55.5 °F 52.3 °F 29.96 in NE 0.6 mph 9 mph 89% 0.00 in 0 W/m2
20:44 55.5 °F 52.3 °F 29.96 in NNE 1 mph 9 mph 89% 0.00 in 0 W/m2
20:49 55.4 °F 52.2 °F 29.96 in NE 0.7 mph 9 mph 89% 0.00 in 0 W/m2
20:54 55.4 °F 52.7 °F 29.97 in NE 0.6 mph 9 mph 90.5% 0.00 in 0 W/m2
20:59 55.4 °F 52.8 °F 29.97 in East 0.4 mph 9 mph 91% 0.00 in 0 W/m2
21:04 55.4 °F 52.2 °F 29.96 in NE 0.9 mph 9 mph 89% 0.00 in 0 W/m2
21:09 55.4 °F 52.2 °F 29.96 in ENE 1.2 mph 10 mph 89% 0.00 in 0 W/m2
21:14 55.5 °F 52.3 °F 29.97 in North 0.9 mph 10 mph 89% 0.00 in 0 W/m2
21:19 55.5 °F 52.3 °F 29.97 in NNE 1.5 mph 10 mph 89% 0.00 in 0 W/m2
21:24 55.4 °F 52.2 °F 29.96 in NNE 0.5 mph 10 mph 89% 0.00 in 0 W/m2
21:29 55.4 °F 52.3 °F 29.96 in NNE 0.9 mph 10 mph 89.5% 0.01 in 0 W/m2
21:34 55.2 °F 52.1 °F 29.97 in NNE 0.4 mph 10 mph 89.1% 0.02 in 0 W/m2
21:39 55 °F 52.2 °F 29.97 in East 1.1 mph 9 mph 90% 0.02 in 0 W/m2
21:44 54.8 °F 52 °F 29.97 in North 0.7 mph 13 mph 90% 0.02 in 0 W/m2
21:49 54.7 °F 52 °F 29.97 in NW 0.8 mph 13 mph 90.7% 0.02 in 0 W/m2
21:54 54.6 °F 52 °F 29.97 in NW 0.2 mph 13 mph 91% 0.02 in 0 W/m2
21:59 54.4 °F 51.9 °F 29.97 in NE 0.6 mph 13 mph 91% 0.02 in 0 W/m2
22:04 54.3 °F 51.9 °F 29.97 in NNW 1 mph 13 mph 91.7% 0.02 in 0 W/m2
22:09 54.2 °F 51.9 °F 29.97 in NNW 0.2 mph 9 mph 92% 0.03 in 0 W/m2
22:14 54.1 °F 51.8 °F 29.97 in NW 1.2 mph 9 mph 92% 0.03 in 0 W/m2
22:19 54.1 °F 51.8 °F 29.97 in NNW 0.9 mph 9 mph 92% 0.04 in 0 W/m2
22:24 54 °F 51.8 °F 29.96 in NNW 1.1 mph 9 mph 92.4% 0.04 in 0 W/m2
22:29 53.9 °F 51.9 °F 29.96 in NW 1.5 mph 13 mph 93% 0.06 in 0 W/m2
22:34 53.9 °F 51.9 °F 29.96 in NW 0.6 mph 13 mph 93% 0.07 in 0 W/m2
22:39 53.8 °F 51.8 °F 29.96 in NNE 0.4 mph 10 mph 93% 0.07 in 0 W/m2
22:44 53.7 °F 51.7 °F 29.96 in North 0.7 mph 10 mph 93% 0.07 in 0 W/m2
22:49 53.7 °F 51.7 °F 29.96 in North 0.9 mph 10 mph 93% 0.07 in 0 W/m2
22:54 53.6 °F 51.8 °F 29.96 in NNW 0.9 mph 11 mph 93.6% 0.07 in 0 W/m2
22:59 53.6 °F 51.9 °F 29.95 in NW 1.2 mph 11 mph 94% 0.07 in 0 W/m2
23:04 53.6 °F 51.9 °F 29.95 in North 0.6 mph 7 mph 94% 0.06 in 0 W/m2
23:09 53.5 °F 51.9 °F 29.95 in North 0.8 mph 7 mph 94% 0.06 in 0 W/m2
23:14 53.5 °F 51.8 °F 29.95 in NNW 1.1 mph 13 mph 94% 0.06 in 0 W/m2
23:19 53.5 °F 51.8 °F 29.95 in North 0.7 mph 13 mph 94% 0.06 in 0 W/m2
23:24 53.5 °F 51.8 °F 29.95 in North 0.3 mph 13 mph 94% 0.06 in 0 W/m2
23:29 53.5 °F 51.8 °F 29.95 in ENE 0.5 mph 13 mph 94% 0.06 in 0 W/m2
23:34 53.5 °F 51.8 °F 29.95 in NNW 0.4 mph 13 mph 94% 0.06 in 0 W/m2
23:39 53.5 °F 51.8 °F 29.95 in WSW 0.4 mph 6 mph 94% 0.02 in 0 W/m2
23:44 53.5 °F 51.9 °F 29.95 in North 0.3 mph 6 mph 94.2% 0.02 in 0 W/m2
23:49 53.6 °F 51.9 °F 29.95 in North 1 mph 6 mph 94% 0.02 in 0 W/m2
23:54 53.6 °F 51.9 °F 29.95 in North 1 mph 6 mph 94% 0.02 in 0 W/m2
23:59 53.6 °F 51.9 °F 29.95 in NNW 1.6 mph 12 mph 94% 0.02 in 0 W/m2
Hartford County Weather
Compliments of Weather Underground - 4 mb